METAR Data
IDs: Format: Raw Decoded Include TAF

Data at: 2326 UTC 30 Jun 2022

K4R5 302315Z AUTO 30012G19KT 270V330 10SM CLR 26/12 A2972 RMK AO2 LTG DSNT E T02620121
K4R5 302255Z AUTO 28015G22KT 10SM CLR 27/12 A2971 RMK AO2 LTG DSNT E T02690120
K4R5 302235Z AUTO 28015G22KT 260V320 10SM CLR 27/12 A2971 RMK AO2 LTG DSNT E T02720118
K4R5 302215Z AUTO 28012G20KT 10SM CLR 28/12 A2970 RMK AO2 LTG DSNT SE T02840120
K4R5 302155Z AUTO 28012G21KT 10SM CLR 28/13 A2970 RMK AO2 T02820125
K4R5 302135Z AUTO 27012G21KT 240V300 10SM CLR 29/12 A2969 RMK AO2 T02890123
K4R5 302115Z AUTO 27010G18KT 10SM CLR 29/13 A2969 RMK AO2 LTG DSNT NE T02920127
K4R5 302055Z AUTO 27010G18KT 10SM SCT060 SCT070 29/14 A2969 RMK AO2 T02910138
K4R5 302035Z AUTO 26014G20KT 10SM OVC060 28/17 A2969 RMK AO2 T02750167
K4R5 302015Z AUTO 24008G15KT 10SM BKN060 BKN075 BKN095 28/17 A2968 RMK AO2 T02800172
K4R5 301955Z AUTO 25009G17KT 10SM SCT060 SCT075 SCT095 30/18 A2968 RMK AO2 T02960176
K4R5 301935Z AUTO 23008G16KT 200V260 10SM SCT060 BKN075 BKN095 29/17 A2968 RMK AO2 T02880172
K4R5 301915Z AUTO 23009G15KT 10SM SCT060 SCT075 SCT095 28/17 A2968 RMK AO2 LTG DSNT N T02840171
K4R5 301855Z AUTO 24011G16KT 200V270 10SM SCT065 SCT070 29/17 A2967 RMK AO2 T02910172
K4R5 301835Z AUTO 23009G15KT 10SM SCT065 29/17 A2967 RMK AO2 T02920174
K4R5 301815Z AUTO 24010G15KT 10SM CLR 29/17 A2968 RMK AO2 T02900171
K4R5 301755Z AUTO 22007G17KT 10SM SCT060 29/17 A2968 RMK AO2 T02850173
K4R5 301735Z AUTO 24009G16KT 10SM CLR 28/18 A2968 RMK AO2 T02750177
K4R5 301715Z AUTO 23009G16KT 10SM CLR 28/18 A2967 RMK AO2 T02760175
K4R5 301655Z AUTO 23007G15KT 190V260 10SM CLR 27/18 A2968 RMK AO2 T02670177
K4R5 301635Z AUTO 23010G16KT 10SM CLR 26/18 A2970 RMK AO2 T02600180
K4R5 301615Z AUTO 23009G17KT 10SM CLR 25/17 A2970 RMK AO2 T02520174
K4R5 301555Z AUTO 24006KT 10SM CLR 25/18 A2969 RMK AO2 T02460175
K4R5 301535Z AUTO 22007KT 10SM CLR 25/18 A2969 RMK AO2 T02460180
K4R5 301515Z AUTO 22010G15KT 10SM CLR 24/18 A2970 RMK AO2 T02430180
K4R5 301455Z AUTO 20008KT 10SM SCT080 24/18 A2970 RMK AO2 T02350178
K4R5 301435Z AUTO 20008G15KT 10SM BKN080 OVC090 23/18 A2971 RMK AO2 T02250176
K4R5 301415Z AUTO 20006KT 170V250 10SM BKN080 OVC100 22/18 A2971 RMK AO2 T02210175
K4R5 301355Z AUTO 23008G17KT 10SM OVC100 21/17 A2972 RMK AO2 LTG DSNT NE T02100170
K4R5 301335Z AUTO 22006KT 10SM SCT035 BKN100 OVC120 21/17 A2971 RMK AO2 T02110170
K4R5 301315Z AUTO 20007G14KT 10SM -RA SCT035 SCT080 OVC120 21/17 A2971 RMK AO2 T02100171
K4R5 301255Z AUTO 17004KT 10SM BKN120 20/16 A2972 RMK AO2 T01950162
K4R5 301235Z AUTO 00000KT 10SM -RA SCT075 OVC110 19/15 A2972 RMK AO2 T01900153
K4R5 301215Z AUTO 00000KT 10SM -RA BKN110 20/15 A2973 RMK AO2 T01950147
K4R5 301155Z AUTO 28003KT 10SM BKN110 20/14 A2973 RMK AO2 T01990143
K4R5 301135Z AUTO 36010G14KT 10SM BKN110 22/16 A2973 RMK AO2 T02190157
K4R5 301115Z AUTO 00000KT 10SM CLR 23/16 A2971 RMK AO2 T02290160
K4R5 301055Z AUTO 24004KT 10SM CLR 23/16 A2970 RMK AO2 T02320160
K4R5 301035Z AUTO 23004KT 10SM CLR 24/16 A2968 RMK AO2 T02390161
K4R5 301015Z AUTO 22006KT 180V260 10SM CLR 24/16 A2967 RMK AO2 T02380162
K4R5 300955Z AUTO 22010G16KT 10SM CLR 24/17 A2967 RMK AO2 T02400165
K4R5 300935Z AUTO 20006KT 10SM CLR 23/17 A2966 RMK AO2 T02310165
K4R5 300915Z AUTO 21005KT 10SM CLR 22/17 A2966 RMK AO2 LTG DSNT SW AND NW T02200165
K4R5 300855Z AUTO 23004KT 10SM CLR 21/17 A2966 RMK AO2 T02120165
K4R5 300835Z AUTO 22003KT 10SM CLR 21/17 A2966 RMK AO2 T02110166
K4R5 300815Z AUTO 20004KT 10SM CLR 21/17 A2967 RMK AO2 T02080167
K4R5 300755Z AUTO 20006KT 10SM CLR 20/17 A2967 RMK AO2 T02030168
K4R5 300735Z AUTO 16006KT 10SM CLR 20/17 A2969 RMK AO2 T01980166
K4R5 300715Z AUTO 15004KT 10SM CLR 19/16 A2970 RMK AO2 T01870161
K4R5 300655Z AUTO 13004KT 10SM CLR 18/16 A2971 RMK AO2 T01800155
K4R5 300635Z AUTO 14005KT 10SM CLR 18/15 A2973 RMK AO2 T01750151
K4R5 300615Z AUTO 13006KT 10SM SCT110 17/15 A2974 RMK AO2 LTG DSNT N AND E T01690146
K4R5 300555Z AUTO 12007KT 10SM BKN110 16/14 A2977 RMK AO2 T01600138
K4R5 300535Z AUTO 12007KT 10SM BKN110 17/14 A2980 RMK AO2 LTG DSNT E AND SE T01650140
K4R5 300515Z AUTO 12008KT 10SM BKN110 17/14 A2981 RMK AO2 LTG DSNT E AND SE T01650140
K4R5 300455Z AUTO 12007KT 10SM SCT040 SCT050 BKN120 16/14 A2982 RMK AO2 LTG DSNT N AND NE T01620139
K4R5 300435Z AUTO 12008KT 100V170 10SM -RA SCT027 SCT037 BKN120 17/14 A2983 RMK AO2 LTG DSNT N THRU E T01660139
K4R5 300415Z AUTO 12010G15KT 10SM SCT120 18/14 A2983 RMK AO2 LTG DSNT ALQS T01760144
K4R5 300355Z AUTO 09003KT 10SM VCTS BKN120 17/15 A2985 RMK AO2 LTG DSNT ALQS T01660145
K4R5 300335Z AUTO 11003KT 10SM VCTS BKN120 15/14 A2986 RMK AO2 LTG DSNT ALQS T01500137
K4R5 300315Z AUTO 00000KT 10SM TS BKN120 13/12 A2986 RMK AO2 LTG DSNT ALQS T01270119
K4R5 300255Z AUTO 02007KT 10SM -TSRA SCT060 SCT080 BKN100 12/11 A2987 RMK AO2 LTG DSNT ALQS P0004 T01240114
K4R5 300235Z AUTO 00000KT 10SM -TSRA SCT060 BKN110 13/12 A2990 RMK AO2 LTG DSNT S THRU N P0001 T01280123
K4R5 300215Z AUTO 00000KT 10SM TSRA SCT120 13/12 A2990 RMK AO2 LTG DSNT SW THRU NW P0001 T01320116
K4R5 300155Z AUTO 00000KT 10SM CLR 13/11 A2989 RMK AO2 LTG DSNT E AND W T01300113
K4R5 300135Z AUTO 00000KT 7SM -RA SCT027 SCT060 SCT100 13/11 A2990 RMK AO2 LTG DSNT E SE AND W T01330107
K4R5 300115Z AUTO 00000KT 10SM SCT095 SCT120 14/09 A2994 RMK AO2 LTG DSNT S AND SW T01400094
K4R5 300055Z AUTO 00000KT 10SM -RA SCT100 SCT120 15/09 A2993 RMK AO2 LTG DSNT SW T01510090
K4R5 300035Z AUTO 25003KT 10SM SCT100 SCT120 16/09 A2995 RMK AO2 T01560086
K4R5 300015Z AUTO 00000KT 10SM CLR 16/09 A2997 RMK AO2 T01570085
K4R5 292355Z AUTO 00000KT 10SM CLR 15/08 A2996 RMK AO2 T01520080
K4R5 292335Z AUTO 09006KT 10SM SCT120 14/07 A2996 RMK AO2 T01430071
K4R5 292315Z AUTO 08003KT 10SM SCT120 15/08 A3003 RMK AO2 T01470076
K4R5 292255Z AUTO 07004KT 10SM CLR 15/08 A3003 RMK AO2 T01470078
K4R5 292235Z AUTO 07004KT 10SM CLR 16/07 A3001 RMK AO2 T01580067
K4R5 292215Z AUTO 03003KT 10SM SCT120 16/10 A3005 RMK AO2 T01600096
K4R5 292155Z AUTO 02005KT 10SM CLR 16/10 A3005 RMK AO2 T01620102
K4R5 292135Z AUTO 04005KT 10SM CLR 17/11 A3005 RMK AO2 T01700111
K4R5 292115Z AUTO 02003KT 10SM CLR 16/10 A3008 RMK AO2 T01590102
K4R5 292055Z AUTO 03004KT 10SM CLR 15/11 A3007 RMK AO2 T01510106
K4R5 292035Z AUTO 00000KT 10SM SCT120 16/09 A3007 RMK AO2 T01610092
K4R5 292015Z AUTO 08004KT 10SM BKN120 16/09 A3006 RMK AO2 T01560088
K4R5 291955Z AUTO 08005KT 10SM -RA SCT055 BKN120 16/09 A3006 RMK AO2 T01560092
K4R5 291935Z AUTO 09004KT 10SM SCT120 17/11 A3009 RMK AO2 T01730106
K4R5 291915Z AUTO 13003KT 10SM CLR 18/10 A3010 RMK AO2 T01810104
K4R5 291855Z AUTO 12006KT 10SM CLR 19/11 A3011 RMK AO2 T01930110
K4R5 291815Z AUTO 09003KT 10SM CLR 18/11 A3012 RMK AO2 T01840109
K4R5 291755Z AUTO 09005KT 10SM CLR 20/12 A3012 RMK AO2 T02030116
K4R5 291735Z AUTO 10005KT 10SM CLR 20/11 A3013 RMK AO2 T01990113
K4R5 291715Z AUTO 01003KT 10SM CLR 19/12 A3014 RMK AO2 T01920121
K4R5 291655Z AUTO 00000KT 10SM CLR 17/10 A3015 RMK AO2 T01700101
K4R5 291635Z AUTO 00000KT 10SM CLR 17/10 A3016 RMK AO2 T01660100
K4R5 291615Z AUTO 00000KT 10SM CLR 16/10 A3016 RMK AO2 T01630101
K4R5 291555Z AUTO 31003KT 10SM CLR 17/11 A3016 RMK AO2 T01670106
K4R5 291535Z AUTO 00000KT 10SM CLR 18/11 A3016 RMK AO2 T01790105
K4R5 291515Z AUTO 00000KT 10SM CLR 17/11 A3016 RMK AO2 T01700107
K4R5 291455Z AUTO 00000KT 10SM CLR 18/11 A3017 RMK AO2 T01750110
K4R5 291435Z AUTO 00000KT 10SM CLR 16/11 A3017 RMK AO2 T01610106
K4R5 291415Z AUTO 00000KT 10SM CLR 16/10 A3018 RMK AO2 T01630098
K4R5 291355Z AUTO 00000KT 10SM CLR 15/10 A3018 RMK AO2 T01530095
K4R5 291335Z AUTO 00000KT 10SM CLR 15/10 A3017 RMK AO2 T01490097
K4R5 291315Z AUTO 00000KT 10SM CLR 14/09 A3017 RMK AO2 T01390088
K4R5 291255Z AUTO 00000KT 10SM CLR 14/09 A3017 RMK AO2 T01360092
K4R5 291235Z AUTO 00000KT 10SM CLR 13/10 A3016 RMK AO2 T01260097
K4R5 291215Z AUTO 00000KT 10SM CLR 11/10 A3015 RMK AO2 T01140100
K4R5 291155Z AUTO 00000KT 10SM CLR 09/08 A3015 RMK AO2 T00880084
K4R5 291135Z AUTO 00000KT 10SM CLR 07/07 A3015 RMK AO2 T00700068